Time;durP1;ratioP1;P1;durP2;ratioP2;P2;SDS_P1;SDS_P2;PMS_P1;PMS_P2;Temp;Humidity;BMP_temperature;BMP_pressure;BME280_temperature;BME280_humidity;BME280_pressure;Samples;Min_cycle;Max_cycle;Signal;HPM_P1;HPM_P2
2021/12/01 00:00:00;;;;;;;5.40;3.47;;;205.70;1433.60;;;;;;5056100;28;20053;-58
2021/12/01 00:02:26;;;;;;;4.85;3.10;;;205.70;1433.60;;;;;;5055858;28;20029;-58
2021/12/01 00:04:51;;;;;;;6.97;3.33;;;205.70;1433.60;;;;;;5055778;28;20029;-59
2021/12/01 00:07:17;;;;;;;7.95;4.03;;;205.70;1433.60;;;;;;5055374;28;20090;-58
2021/12/01 00:09:43;;;;;;;7.55;3.40;;;205.60;1433.60;;;;;;5055597;28;20516;-58
2021/12/01 00:12:09;;;;;;;5.10;3.42;;;205.70;1433.60;;;;;;5055446;28;20040;-59
2021/12/01 00:14:36;;;;;;;6.32;3.40;;;205.70;1433.60;;;;;;5055878;28;20033;-58
2021/12/01 00:17:02;;;;;;;7.38;3.78;;;205.70;1433.60;;;;;;5055525;28;20025;-58
2021/12/01 00:19:29;;;;;;;6.15;3.67;;;205.70;1433.60;;;;;;5055257;28;20036;-58
2021/12/01 00:21:56;;;;;;;8.60;3.95;;;205.70;1433.60;;;;;;5055344;28;20032;-59
2021/12/01 00:24:22;;;;;;;10.40;4.57;;;205.70;1459.20;;;;;;5037242;28;20040;-57
2021/12/01 00:26:47;;;;;;;8.43;4.25;;;205.60;1459.20;;;;;;5054935;28;20025;-59
2021/12/01 00:29:13;;;;;;;9.00;4.45;;;205.60;1459.20;;;;;;5055306;28;20128;-58
2021/12/01 00:31:41;;;;;;;6.38;3.70;;;205.60;1459.20;;;;;;5055266;28;20104;-57
2021/12/01 00:34:07;;;;;;;7.47;3.72;;;205.50;1484.80;;;;;;5053817;28;20028;-58
2021/12/01 00:36:33;;;;;;;6.20;3.72;;;205.50;1484.80;;;;;;5054940;28;20049;-58
2021/12/01 00:38:59;;;;;;;5.95;3.40;;;205.60;1459.20;;;;;;5055309;28;20064;-58
2021/12/01 00:41:25;;;;;;;5.18;3.20;;;205.50;1484.80;;;;;;5055005;28;20021;-58
2021/12/01 00:43:52;;;;;;;7.57;4.13;;;205.50;1484.80;;;;;;5055298;28;20371;-58
2021/12/01 00:46:24;;;;;;;10.05;4.95;;;205.50;1484.80;;;;;;5054951;28;20103;-58
2021/12/01 00:48:50;;;;;;;8.05;3.63;;;205.50;1510.40;;;;;;5054494;28;20043;-59
2021/12/01 00:51:16;;;;;;;7.40;3.95;;;205.50;1510.40;;;;;;5054879;28;20021;-58
2021/12/01 00:53:43;;;;;;;5.40;3.33;;;205.50;1484.80;;;;;;5054745;28;20378;-58
2021/12/01 00:56:10;;;;;;;8.02;3.88;;;205.50;1510.40;;;;;;5054748;28;20024;-59
2021/12/01 00:58:36;;;;;;;8.27;4.82;;;205.60;1510.40;;;;;;5054724;28;20029;-58
2021/12/01 01:01:03;;;;;;;9.70;5.05;;;205.60;1484.80;;;;;;5054544;28;20078;-64
2021/12/01 01:03:31;;;;;;;7.97;4.47;;;205.60;1536.00;;;;;;5054706;28;20445;-59
2021/12/01 01:05:57;;;;;;;7.13;4.15;;;205.60;1510.40;;;;;;5054427;28;20067;-58
2021/12/01 01:08:23;;;;;;;8.57;4.32;;;205.50;1510.40;;;;;;5054112;28;20401;-58
2021/12/01 01:16:25;;;;;;;8.10;3.45;;;205.50;1536.00;;;;;;5054651;28;20024;-59
2021/12/01 01:19:03;;;;;;;13.38;5.93;;;205.50;1536.00;;;;;;5054243;28;20469;-58
2021/12/01 01:21:34;;;;;;;21.77;8.63;;;205.50;1510.40;;;;;;5054270;28;20033;-57
2021/12/01 01:24:01;;;;;;;13.40;5.90;;;205.40;1536.00;;;;;;5054299;28;20486;-59
2021/12/01 01:26:28;;;;;;;12.73;5.75;;;205.50;1536.00;;;;;;5054097;28;20024;-58
2021/12/01 01:28:54;;;;;;;20.48;7.80;;;205.50;1536.00;;;;;;5054501;28;20114;-57
2021/12/01 01:31:20;;;;;;;20.00;8.30;;;205.50;1536.00;;;;;;5054079;28;20055;-57
2021/12/01 01:33:47;;;;;;;23.95;9.50;;;205.50;1510.40;;;;;;5054629;28;20042;-59
2021/12/01 01:36:13;;;;;;;43.30;14.80;;;205.50;1536.00;;;;;;5053998;28;20108;-59
2021/12/01 01:38:40;;;;;;;53.15;19.42;;;205.50;1510.40;;;;;;5053761;28;20029;-58
2021/12/01 01:41:08;;;;;;;47.90;18.70;;;205.50;1510.40;;;;;;5054019;28;20036;-57
2021/12/01 01:43:35;;;;;;;60.80;21.45;;;205.50;1510.40;;;;;;5053991;28;20370;-57
2021/12/01 01:46:01;;;;;;;74.38;23.63;;;205.50;1510.40;;;;;;5053785;28;20029;-58
2021/12/01 01:48:36;;;;;;;57.28;20.67;;;205.50;1510.40;;;;;;5053757;28;20150;-57
2021/12/01 01:51:05;;;;;;;54.17;19.38;;;205.50;1510.40;;;;;;5053915;28;20049;-58
2021/12/01 01:53:33;;;;;;;58.40;18.73;;;205.60;1484.80;;;;;;5053637;28;20126;-59
2021/12/01 01:56:02;;;;;;;47.17;16.45;;;205.50;1510.40;;;;;;5053763;28;20378;-57
2021/12/01 01:58:28;;;;;;;56.88;17.92;;;205.50;1510.40;;;;;;5053690;28;20067;-59
2021/12/01 02:01:06;;;;;;;47.65;16.08;;;205.50;1510.40;;;;;;5053545;28;20040;-58
2021/12/01 02:03:44;;;;;;;38.75;12.23;;;205.50;1536.00;;;;;;5053742;28;20037;-57
2021/12/01 02:06:12;;;;;;;45.20;14.82;;;205.50;1536.00;;;;;;5053853;28;20481;-58
2021/12/01 02:08:40;;;;;;;43.65;15.10;;;205.50;1536.00;;;;;;5053212;28;20044;-57
2021/12/01 02:11:10;;;;;;;54.38;15.25;;;205.50;1561.60;;;;;;5053521;28;20025;-58
2021/12/01 02:13:37;;;;;;;33.22;10.25;;;205.40;1536.00;;;;;;5053652;28;20112;-57
2021/12/01 02:16:04;;;;;;;20.58;6.35;;;205.50;1561.60;;;;;;5053643;28;20044;-57
2021/12/01 02:18:30;;;;;;;18.10;6.68;;;205.50;1561.60;;;;;;5053542;28;20370;-59
2021/12/01 02:21:04;;;;;;;16.02;5.30;;;205.50;1561.60;;;;;;5053301;28;20055;-57
2021/12/01 02:23:30;;;;;;;13.55;5.07;;;205.50;1561.60;;;;;;5053331;28;20017;-57
2021/12/01 02:25:56;;;;;;;10.68;4.97;;;205.50;1561.60;;;;;;5053565;28;20041;-58
2021/12/01 02:28:22;;;;;;;9.07;3.83;;;205.60;1561.60;;;;;;5053003;28;20041;-57
2021/12/01 02:30:48;;;;;;;11.50;4.13;;;205.60;1561.60;;;;;;5053377;28;20467;-57
2021/12/01 02:33:14;;;;;;;14.23;5.35;;;205.60;1561.60;;;;;;5053135;28;20033;-57
2021/12/01 02:35:39;;;;;;;10.23;5.15;;;205.60;1561.60;;;;;;5053631;28;20025;-58
2021/12/01 02:38:06;;;;;;;12.05;5.60;;;205.70;1561.60;;;;;;5052775;28;20051;-59
2021/12/01 02:40:33;;;;;;;13.88;5.78;;;205.70;1536.00;;;;;;5053142;28;20025;-57
2021/12/01 02:42:59;;;;;;;18.77;6.40;;;205.70;1536.00;;;;;;5053452;28;20116;-57
2021/12/01 02:45:25;;;;;;;23.25;8.43;;;205.70;1536.00;;;;;;5053910;28;20059;-58
2021/12/01 02:47:51;;;;;;;24.35;9.52;;;205.70;1536.00;;;;;;5053082;28;20453;-57
2021/12/01 02:50:17;;;;;;;18.25;7.55;;;205.70;1536.00;;;;;;5053289;28;20057;-57
2021/12/01 02:52:43;;;;;;;15.85;6.40;;;205.70;1536.00;;;;;;5052946;28;20040;-58
2021/12/01 02:55:10;;;;;;;14.43;6.28;;;205.70;1536.00;;;;;;5053065;28;20029;-59
2021/12/01 02:57:54;;;;;;;13.02;5.25;;;205.70;1536.00;;;;;;5055885;28;20040;-57
2021/12/01 03:00:23;;;;;;;15.52;5.45;;;205.70;1536.00;;;;;;5056939;28;20108;-59
2021/12/01 03:02:51;;;;;;;15.52;5.53;;;205.70;1536.00;;;;;;5056618;28;20145;-58
2021/12/01 03:05:18;;;;;;;15.80;6.13;;;230.40;1536.00;;;;;;5057395;28;20045;-57
2021/12/01 03:07:44;;;;;;;12.25;5.13;;;230.40;1536.00;;;;;;5056244;28;20489;-57
2021/12/01 03:10:11;;;;;;;11.73;5.85;;;230.40;1536.00;;;;;;5057072;28;20135;-59
2021/12/01 03:12:39;;;;;;;13.27;6.03;;;230.40;1536.00;;;;;;5056985;28;20021;-57
2021/12/01 03:15:08;;;;;;;18.05;6.22;;;230.40;1536.00;;;;;;5056898;28;20017;-57
2021/12/01 03:17:35;;;;;;;18.67;6.85;;;230.40;1536.00;;;;;;5056983;28;20132;-58
2021/12/01 03:20:01;;;;;;;14.65;5.53;;;230.40;1536.00;;;;;;5056584;28;20098;-57
2021/12/01 03:22:27;;;;;;;10.55;5.13;;;230.40;1510.40;;;;;;5056456;28;20032;-58
2021/12/01 03:24:54;;;;;;;10.23;4.63;;;205.70;1510.40;;;;;;5056560;28;20017;-58
2021/12/01 03:27:20;;;;;;;10.55;4.82;;;205.70;1510.40;;;;;;5056440;28;20029;-59
2021/12/01 03:29:47;;;;;;;10.20;4.45;;;205.70;1510.40;;;;;;5056560;28;20032;-58
2021/12/01 03:32:13;;;;;;;12.80;5.40;;;205.70;1510.40;;;;;;5056305;28;20067;-59
2021/12/01 03:34:40;;;;;;;12.05;4.57;;;230.40;1510.40;;;;;;5056164;28;20032;-58
2021/12/01 03:37:06;;;;;;;11.82;5.20;;;230.40;1484.80;;;;;;5055809;28;20033;-57
2021/12/01 03:39:32;;;;;;;10.88;5.25;;;230.40;1510.40;;;;;;5056205;28;20025;-58
2021/12/01 03:41:58;;;;;;;15.95;6.40;;;230.40;1510.40;;;;;;5056280;28;20086;-57
2021/12/01 03:44:24;;;;;;;20.30;8.93;;;230.40;1484.80;;;;;;5056255;28;20029;-58
2021/12/01 03:46:50;;;;;;;26.30;9.90;;;230.50;1484.80;;;;;;5056343;28;20108;-58
2021/12/01 03:49:16;;;;;;;24.65;8.55;;;230.50;1484.80;;;;;;5056029;28;20381;-58
2021/12/01 03:51:41;;;;;;;26.27;9.50;;;230.50;1484.80;;;;;;5056053;28;20025;-57
2021/12/01 03:54:07;;;;;;;27.42;9.55;;;230.50;1484.80;;;;;;5055339;28;20382;-58
2021/12/01 03:56:33;;;;;;;26.58;9.38;;;230.50;1484.80;;;;;;5055771;28;20021;-58
2021/12/01 03:59:04;;;;;;;27.30;8.30;;;230.50;1484.80;;;;;;5056007;28;20030;-58
2021/12/01 04:01:31;;;;;;;22.48;7.97;;;230.50;1484.80;;;;;;5055817;28;20397;-58
2021/12/01 04:03:58;;;;;;;19.85;8.00;;;230.50;1484.80;;;;;;5055270;28;20021;-58
2021/12/01 04:06:24;;;;;;;21.98;8.05;;;230.50;1484.80;;;;;;5055309;28;20024;-58
2021/12/01 04:08:50;;;;;;;21.95;7.88;;;230.50;1484.80;;;;;;5055169;28;20433;-57
2021/12/01 04:11:16;;;;;;;19.38;8.20;;;230.50;1484.80;;;;;;5055790;28;20021;-58
2021/12/01 04:13:42;;;;;;;25.08;8.80;;;230.60;1484.80;;;;;;5055934;28;20040;-57
2021/12/01 04:16:08;;;;;;;24.90;9.00;;;230.50;1459.20;;;;;;5055550;28;20021;-62
2021/12/01 04:18:33;;;;;;;25.13;8.30;;;230.50;1459.20;;;;;;5055534;28;20098;-57
2021/12/01 04:20:59;;;;;;;22.75;7.40;;;230.60;1484.80;;;;;;5055231;28;20113;-58
2021/12/01 04:23:25;;;;;;;24.77;7.30;;;230.50;1510.40;;;;;;5055221;28;20075;-57
2021/12/01 04:25:51;;;;;;;18.90;6.18;;;230.60;1587.20;;;;;;5055267;28;20036;-59
2021/12/01 04:28:18;;;;;;;19.20;6.18;;;230.60;1536.00;;;;;;5055152;28;20116;-58
2021/12/01 04:30:44;;;;;;;14.88;6.13;;;230.60;1510.40;;;;;;5055152;28;20047;-57
2021/12/01 04:33:10;;;;;;;13.32;5.30;;;230.60;1510.40;;;;;;5055194;28;20111;-58
2021/12/01 04:35:36;;;;;;;10.90;5.20;;;230.60;1484.80;;;;;;5055233;28;20060;-57
2021/12/01 04:38:03;;;;;;;12.93;6.40;;;230.60;1510.40;;;;;;5054873;28;20025;-57
2021/12/01 04:40:28;;;;;;;12.40;6.75;;;230.50;1510.40;;;;;;5055017;28;20033;-57
2021/12/01 04:42:54;;;;;;;12.90;6.40;;;230.50;1510.40;;;;;;5055010;28;20017;-57
2021/12/01 04:45:22;;;;;;;11.98;6.00;;;230.50;1510.40;;;;;;5055038;28;20486;-57
2021/12/01 04:47:50;;;;;;;10.52;6.03;;;230.50;1484.80;;;;;;5054373;28;20086;-59
2021/12/01 04:50:18;;;;;;;9.90;5.38;;;230.50;1510.40;;;;;;5055065;28;20477;-59
2021/12/01 04:52:45;;;;;;;9.20;5.60;;;230.50;1510.40;;;;;;5054810;28;20033;-57
2021/12/01 04:55:11;;;;;;;9.43;5.82;;;230.50;1510.40;;;;;;5055065;28;20025;-58
2021/12/01 04:57:43;;;;;;;6.75;4.07;;;230.50;1510.40;;;;;;5055104;28;20021;-57
2021/12/01 05:00:12;;;;;;;6.70;3.97;;;230.50;1510.40;;;;;;5054557;28;20025;-57
2021/12/01 05:02:38;;;;;;;6.55;3.75;;;230.60;1510.40;;;;;;5054835;28;20422;-57
2021/12/01 05:05:05;;;;;;;8.43;3.83;;;230.60;1510.40;;;;;;5054681;28;20082;-59
2021/12/01 05:07:31;;;;;;;5.28;3.25;;;230.70;1510.40;;;;;;5054286;28;20053;-57
2021/12/01 05:09:57;;;;;;;5.03;3.22;;;230.70;1484.80;;;;;;5054381;28;20021;-57
2021/12/01 05:12:23;;;;;;;7.68;3.80;;;230.80;1484.80;;;;;;5054425;28;20031;-57
2021/12/01 05:14:49;;;;;;;6.60;3.88;;;230.80;1484.80;;;;;;5054741;28;20148;-58
2021/12/01 05:17:15;;;;;;;6.10;3.60;;;230.80;1484.80;;;;;;5054733;28;20029;-58
2021/12/01 05:19:41;;;;;;;8.23;4.00;;;230.80;1510.40;;;;;;5053720;28;20029;-59
2021/12/01 05:22:07;;;;;;;8.00;3.92;;;230.80;1510.40;;;;;;5054330;28;20478;-57
2021/12/01 05:24:33;;;;;;;9.57;5.68;;;230.80;1510.40;;;;;;5053786;28;20612;-57
2021/12/01 05:26:59;;;;;;;8.70;4.90;;;230.80;1510.40;;;;;;5054747;28;20025;-57
2021/12/01 05:29:25;;;;;;;8.35;4.35;;;230.70;1510.40;;;;;;5054117;28;20021;-57
2021/12/01 05:31:52;;;;;;;6.13;4.07;;;230.70;1510.40;;;;;;5053985;28;20040;-58
2021/12/01 05:34:18;;;;;;;7.35;4.15;;;230.70;1510.40;;;;;;5054206;28;20025;-58
2021/12/01 05:36:44;;;;;;;29.48;16.70;;;230.70;1510.40;;;;;;5054129;28;20104;-57
2021/12/01 05:39:10;;;;;;;26.73;12.55;;;230.70;1536.00;;;;;;5053963;28;20420;-58
2021/12/01 05:41:36;;;;;;;15.98;9.32;;;230.70;1536.00;;;;;;5053852;28;20095;-57
2021/12/01 05:44:02;;;;;;;17.08;9.88;;;230.70;1536.00;;;;;;5053695;28;20029;-58
2021/12/01 05:46:27;;;;;;;11.93;7.53;;;230.80;1510.40;;;;;;5036104;28;20040;-58
2021/12/01 05:48:54;;;;;;;12.40;8.40;;;230.80;1510.40;;;;;;5053775;28;20373;-58
2021/12/01 05:51:21;;;;;;;19.13;10.45;;;230.80;1510.40;;;;;;5053862;28;20029;-58
2021/12/01 05:53:48;;;;;;;22.17;13.57;;;230.70;1536.00;;;;;;5053735;28;20078;-58
2021/12/01 05:56:14;;;;;;;20.65;13.85;;;230.70;1536.00;;;;;;5053786;28;20029;-58
2021/12/01 05:58:40;;;;;;;18.65;14.10;;;230.70;1510.40;;;;;;5053753;28;20052;-58
2021/12/01 06:01:06;;;;;;;18.17;11.13;;;230.70;1536.00;;;;;;5053381;28;20025;-59
2021/12/01 06:03:32;;;;;;;15.82;10.82;;;230.70;1536.00;;;;;;5053845;28;20025;-58
2021/12/01 06:05:57;;;;;;;13.85;9.57;;;230.70;1536.00;;;;;;5053460;28;20021;-58
2021/12/01 06:08:23;;;;;;;36.42;20.85;;;230.80;1510.40;;;;;;5053094;28;20053;-58
2021/12/01 06:10:49;;;;;;;41.83;20.65;;;230.80;1510.40;;;;;;5053938;28;20021;-59
2021/12/01 06:13:17;;;;;;;55.58;28.33;;;230.80;1510.40;;;;;;5053514;28;20017;-58
2021/12/01 06:15:44;;;;;;;38.28;22.88;;;230.80;1510.40;;;;;;5053694;28;20029;-58
2021/12/01 06:18:11;;;;;;;41.55;24.85;;;230.90;1484.80;;;;;;5053603;28;20028;-58
2021/12/01 06:20:37;;;;;;;42.88;24.60;;;230.90;1484.80;;;;;;5053604;28;20106;-58
2021/12/01 06:23:03;;;;;;;31.40;21.40;;;230.90;1484.80;;;;;;5053523;28;20025;-59
2021/12/01 06:25:29;;;;;;;34.55;23.05;;;231.00;1484.80;;;;;;5052969;28;20029;-58
2021/12/01 06:27:56;;;;;;;36.25;19.30;;;231.00;1484.80;;;;;;5053310;28;20540;-58
2021/12/01 06:30:24;;;;;;;43.22;20.52;;;231.00;1484.80;;;;;;5053739;28;20028;-57
2021/12/01 06:32:50;;;;;;;37.97;21.75;;;231.00;1484.80;;;;;;5057190;28;20027;-58
2021/12/01 06:35:17;;;;;;;37.15;22.05;;;231.00;1484.80;;;;;;5057220;28;20104;-58
2021/12/01 06:37:43;;;;;;;34.45;22.38;;;231.10;1510.40;;;;;;5057391;28;20409;-58
2021/12/01 06:40:10;;;;;;;42.70;22.33;;;231.00;1484.80;;;;;;5057427;28;20021;-58
2021/12/01 06:42:35;;;;;;;34.10;19.38;;;231.10;1484.80;;;;;;5057142;28;20043;-57
2021/12/01 06:45:06;;;;;;;32.15;19.23;;;231.10;1510.40;;;;;;5056971;28;20021;-57
2021/12/01 06:47:32;;;;;;;39.60;18.55;;;231.10;1484.80;;;;;;5038728;28;20029;-58
2021/12/01 06:49:59;;;;;;;35.33;20.85;;;231.20;1484.80;;;;;;5036855;28;20374;-57
2021/12/01 06:52:28;;;;;;;36.50;21.23;;;231.20;1484.80;;;;;;5036959;28;20025;-57
2021/12/01 06:54:54;;;;;;;29.30;14.35;;;231.20;1484.80;;;;;;5036873;28;20155;-57
2021/12/01 06:57:20;;;;;;;25.33;10.77;;;231.20;1484.80;;;;;;5036955;28;20018;-57
2021/12/01 06:59:46;;;;;;;22.05;10.98;;;231.30;1459.20;;;;;;5036821;28;20036;-58
2021/12/01 07:02:12;;;;;;;23.98;11.65;;;231.30;1459.20;;;;;;5036904;28;20028;-57
2021/12/01 07:04:37;;;;;;;20.65;10.90;;;231.30;1459.20;;;;;;5036816;28;20459;-57
2021/12/01 07:07:03;;;;;;;20.80;11.90;;;231.30;1459.20;;;;;;5036535;28;20079;-58
2021/12/01 07:09:29;;;;;;;38.00;23.02;;;231.30;1459.20;;;;;;5056335;28;20057;-58
2021/12/01 07:11:55;;;;;;;29.30;20.60;;;231.30;1484.80;;;;;;5056884;28;20028;-57
2021/12/01 07:14:22;;;;;;;20.92;15.45;;;231.30;1459.20;;;;;;5056941;28;20421;-58
2021/12/01 07:16:48;;;;;;;26.55;18.23;;;256.00;1459.20;;;;;;5056424;28;20025;-57
2021/12/01 07:19:13;;;;;;;22.02;15.50;;;231.30;1459.20;;;;;;5056341;28;20112;-58
2021/12/01 07:21:39;;;;;;;21.85;11.98;;;256.00;1459.20;;;;;;5056314;28;20031;-58
2021/12/01 07:24:06;;;;;;;25.67;12.13;;;256.00;1459.20;;;;;;5056492;28;20051;-57
2021/12/01 07:26:32;;;;;;;30.30;17.48;;;256.00;1459.20;;;;;;5056216;28;20071;-57
2021/12/01 07:28:58;;;;;;;41.90;28.50;;;256.00;1459.20;;;;;;5056122;28;20090;-57
2021/12/01 07:31:24;;;;;;;40.90;24.73;;;256.00;1459.20;;;;;;5056263;28;20027;-57
2021/12/01 07:33:50;;;;;;;41.65;28.13;;;256.10;1459.20;;;;;;5056265;28;20413;-62
2021/12/01 07:36:17;;;;;;;72.97;44.83;;;256.20;1459.20;;;;;;5056465;28;20028;-58
2021/12/01 07:38:43;;;;;;;95.68;59.95;;;256.20;1459.20;;;;;;5056090;28;20053;-58
2021/12/01 07:41:09;;;;;;;63.85;37.25;;;256.20;1459.20;;;;;;5056009;28;20024;-58
2021/12/01 07:43:34;;;;;;;55.22;31.25;;;256.20;1459.20;;;;;;5055904;28;20510;-58
2021/12/01 07:46:03;;;;;;;46.00;22.70;;;256.20;1459.20;;;;;;5056209;28;20570;-58
2021/12/01 07:48:29;;;;;;;48.50;22.60;;;256.10;1459.20;;;;;;5056147;28;20044;-58
2021/12/01 07:50:55;;;;;;;44.53;23.02;;;256.20;1484.80;;;;;;5056255;28;20374;-58
2021/12/01 07:53:22;;;;;;;27.52;14.18;;;256.20;1459.20;;;;;;5055978;28;20031;-58
2021/12/01 07:55:48;;;;;;;23.60;11.32;;;256.30;1459.20;;;;;;5055846;28;20021;-58
2021/12/01 07:58:13;;;;;;;16.10;9.95;;;256.20;1459.20;;;;;;5055913;28;20021;-58
2021/12/01 08:00:39;;;;;;;18.42;10.65;;;256.30;1484.80;;;;;;5055686;28;20366;-58
2021/12/01 08:03:05;;;;;;;37.75;18.75;;;256.30;1484.80;;;;;;5055782;28;20032;-58
2021/12/01 08:05:32;;;;;;;34.60;18.67;;;256.30;1459.20;;;;;;5055983;28;20365;-58
2021/12/01 08:07:58;;;;;;;28.58;14.52;;;256.40;1459.20;;;;;;5055713;28;20048;-58
2021/12/01 08:10:24;;;;;;;24.98;14.82;;;256.50;1459.20;;;;;;5055675;28;20045;-58
2021/12/01 08:12:51;;;;;;;23.98;13.48;;;256.50;1459.20;;;;;;5055605;28;20381;-58
2021/12/01 08:15:17;;;;;;;23.08;15.00;;;256.60;1459.20;;;;;;5037638;28;20064;-58
2021/12/01 08:17:43;;;;;;;22.05;12.57;;;256.60;1459.20;;;;;;5055565;28;20021;-58
2021/12/01 08:20:09;;;;;;;15.15;9.95;;;256.70;1459.20;;;;;;5055836;28;20481;-58
2021/12/01 08:22:35;;;;;;;12.88;7.80;;;256.70;1459.20;;;;;;5055216;28;20041;-58
2021/12/01 08:25:01;;;;;;;10.60;5.70;;;256.70;1459.20;;;;;;5055702;28;20037;-58
2021/12/01 08:27:28;;;;;;;9.25;5.50;;;256.80;1433.60;;;;;;5055160;28;20035;-59
2021/12/01 08:29:54;;;;;;;7.03;4.32;;;256.80;1459.20;;;;;;5054880;28;20025;-58
2021/12/01 08:32:20;;;;;;;8.15;4.38;;;256.90;1433.60;;;;;;5055419;28;20029;-58
2021/12/01 08:34:52;;;;;;;12.13;6.00;;;256.90;1433.60;;;;;;5055219;28;20028;-59
2021/12/01 08:37:19;;;;;;;21.15;7.85;;;256.90;1433.60;;;;;;5054816;28;20129;-58
2021/12/01 08:39:48;;;;;;;20.60;9.07;;;256.90;1433.60;;;;;;5055032;28;20592;-59
2021/12/01 08:42:14;;;;;;;32.00;16.38;;;281.60;1459.20;;;;;;5054784;28;20482;-58
2021/12/01 08:44:46;;;;;;;31.52;17.20;;;281.60;1459.20;;;;;;5055080;28;20374;-59
2021/12/01 08:47:20;;;;;;;31.92;18.05;;;281.60;1459.20;;;;;;5054900;28;20454;-58
2021/12/01 08:49:46;;;;;;;34.97;16.13;;;281.70;1459.20;;;;;;5055002;28;20033;-58
2021/12/01 08:52:12;;;;;;;44.92;17.48;;;281.70;1433.60;;;;;;5054795;28;20553;-58
2021/12/01 08:54:38;;;;;;;47.10;19.02;;;281.80;1433.60;;;;;;5053817;28;20040;-59
2021/12/01 08:57:05;;;;;;;53.90;18.02;;;281.80;1433.60;;;;;;5054511;28;20090;-58
2021/12/01 08:59:31;;;;;;;59.78;23.75;;;281.80;1408.00;;;;;;5054770;28;20032;-58
2021/12/01 09:01:57;;;;;;;76.50;28.98;;;281.90;1433.60;;;;;;5054718;28;20047;-58
2021/12/01 09:04:23;;;;;;;39.72;19.20;;;281.90;1433.60;;;;;;5054559;28;20454;-58
2021/12/01 09:06:49;;;;;;;29.55;16.08;;;282.00;1459.20;;;;;;5054484;28;20032;-58
2021/12/01 09:09:18;;;;;;;30.77;14.65;;;282.10;1433.60;;;;;;5054249;28;20136;-58
2021/12/01 09:11:53;;;;;;;24.02;14.57;;;282.10;1459.20;;;;;;5054564;28;20052;-59
2021/12/01 09:14:23;;;;;;;23.58;10.88;;;282.10;1433.60;;;;;;5054500;28;20048;-59
2021/12/01 09:16:50;;;;;;;20.13;10.88;;;282.20;1433.60;;;;;;5054575;28;20047;-58
2021/12/01 09:19:15;;;;;;;18.35;10.27;;;282.20;1433.60;;;;;;5054502;28;20032;-58
2021/12/01 09:21:41;;;;;;;20.17;10.55;;;282.30;1433.60;;;;;;5054317;28;20035;-58
2021/12/01 09:24:07;;;;;;;29.95;13.30;;;282.30;1408.00;;;;;;5054398;28;20100;-58
2021/12/01 09:26:34;;;;;;;35.55;17.20;;;282.40;1408.00;;;;;;5054513;28;20430;-59
2021/12/01 09:29:00;;;;;;;42.88;18.42;;;282.40;1408.00;;;;;;5054115;28;20119;-58
2021/12/01 09:31:26;;;;;;;39.60;15.38;;;282.40;1408.00;;;;;;5054220;28;20045;-58
2021/12/01 09:33:52;;;;;;;41.58;14.68;;;282.40;1408.00;;;;;;5054003;28;20052;-58
2021/12/01 09:36:18;;;;;;;42.00;12.82;;;282.50;1408.00;;;;;;5053725;28;20395;-58
2021/12/01 09:38:44;;;;;;;36.60;13.15;;;282.50;1408.00;;;;;;5054053;28;20081;-58
2021/12/01 09:41:11;;;;;;;35.80;12.73;;;282.50;1408.00;;;;;;5054098;28;20032;-58
2021/12/01 09:43:37;;;;;;;31.50;13.57;;;282.50;1408.00;;;;;;5053965;28;20021;-58
2021/12/01 09:46:05;;;;;;;41.58;14.63;;;307.20;1433.60;;;;;;5054243;28;20024;-58
2021/12/01 09:48:33;;;;;;;30.25;13.10;;;307.20;1433.60;;;;;;5053722;28;20126;-59
2021/12/01 09:50:59;;;;;;;38.55;13.60;;;307.20;1433.60;;;;;;5053965;28;20077;-58
2021/12/01 09:53:25;;;;;;;32.22;13.60;;;307.20;1433.60;;;;;;5053881;28;20024;-58
2021/12/01 09:55:51;;;;;;;29.20;12.57;;;307.20;1408.00;;;;;;5053894;28;20029;-58
2021/12/01 09:58:19;;;;;;;29.10;13.70;;;307.20;1408.00;;;;;;5053866;28;20048;-59
2021/12/01 10:00:52;;;;;;;29.98;13.80;;;307.30;1408.00;;;;;;5053745;28;20067;-58
2021/12/01 10:03:18;;;;;;;25.67;12.70;;;307.30;1408.00;;;;;;5053547;28;20107;-58
2021/12/01 10:06:01;;;;;;;35.40;13.60;;;307.30;1408.00;;;;;;5053613;28;20370;-58
2021/12/01 10:08:38;;;;;;;34.05;13.98;;;307.30;1408.00;;;;;;5053117;28;20053;-58
2021/12/01 10:11:10;;;;;;;33.38;13.30;;;307.40;1408.00;;;;;;5053576;28;20463;-58
2021/12/01 10:13:39;;;;;;;39.13;13.98;;;307.30;1408.00;;;;;;5053652;28;20036;-58
2021/12/01 10:16:08;;;;;;;87.50;33.42;;;307.30;1408.00;;;;;;5053610;28;20013;-58
2021/12/01 10:18:43;;;;;;;60.08;25.92;;;307.40;1408.00;;;;;;5053503;28;20033;-58
2021/12/01 10:21:17;;;;;;;;;;;307.40;1408.00;;;;;;5054035;28;20090;-59
2021/12/01 10:23:55;;;;;;;43.27;17.03;;;307.40;1408.00;;;;;;5053336;28;19983;-59
2021/12/01 10:26:25;;;;;;;22.67;11.35;;;307.40;1408.00;;;;;;5053004;28;20063;-59
2021/12/01 10:28:56;;;;;;;32.30;11.35;;;307.40;1408.00;;;;;;5053241;28;20037;-58
2021/12/01 10:31:51;;;;;;;30.58;9.38;;;307.40;1433.60;;;;;;5053340;28;20021;-58
2021/12/01 10:34:32;;;;;;;24.55;8.82;;;307.40;1433.60;;;;;;5053470;28;20029;-58
2021/12/01 10:37:50;;;;;;;18.27;8.70;;;307.50;1433.60;;;;;;5034789;28;20051;-58
2021/12/01 10:40:23;;;;;;;18.45;7.60;;;307.50;1408.00;;;;;;5050353;28;20037;-58
2021/12/01 10:43:06;;;;;;;15.55;7.10;;;307.60;1408.00;;;;;;5053457;28;20027;-58
2021/12/01 10:45:45;;;;;;;18.63;8.88;;;307.70;1408.00;;;;;;5053285;28;20032;-58
2021/12/01 10:48:23;;;;;;;15.65;8.25;;;307.70;1408.00;;;;;;5053179;28;20536;-58
2021/12/01 10:50:50;;;;;;;15.80;7.93;;;307.80;1408.00;;;;;;5053309;28;20112;-58
2021/12/01 10:53:21;;;;;;;10.98;6.43;;;307.80;1382.40;;;;;;5053136;28;20017;-59
2021/12/01 10:55:51;;;;;;;17.13;8.10;;;307.90;1408.00;;;;;;5053110;28;20079;-58
2021/12/01 10:58:18;;;;;;;15.25;7.82;;;308.00;1382.40;;;;;;5053237;28;20374;-58
2021/12/01 11:00:50;;;;;;;18.83;8.75;;;308.00;1408.00;;;;;;5053278;28;20377;-58
2021/12/01 11:03:21;;;;;;;26.48;9.48;;;308.00;1408.00;;;;;;5053160;28;20021;-58
2021/12/01 11:05:48;;;;;;;21.75;9.32;;;308.10;1408.00;;;;;;5053055;28;20027;-58
2021/12/01 11:08:18;;;;;;;18.60;9.38;;;308.10;1382.40;;;;;;5052444;28;20056;-58
2021/12/01 11:10:46;;;;;;;18.15;6.70;;;332.80;1408.00;;;;;;5053142;28;20021;-58
2021/12/01 11:13:13;;;;;;;13.88;6.40;;;332.80;1408.00;;;;;;5053170;28;20035;-58
2021/12/01 11:15:44;;;;;;;13.27;5.30;;;332.90;1408.00;;;;;;5053056;28;20025;-59
2021/12/01 11:18:17;;;;;;;10.27;4.80;;;332.90;1382.40;;;;;;5054706;28;20021;-58
2021/12/01 11:20:49;;;;;;;10.98;3.83;;;333.00;1382.40;;;;;;5056472;28;20017;-58
2021/12/01 11:23:27;;;;;;;11.02;5.35;;;333.00;1382.40;;;;;;5056727;28;20025;-58
2021/12/01 11:25:58;;;;;;;16.30;8.80;;;333.00;1382.40;;;;;;5056585;28;20436;-58
2021/12/01 11:28:27;;;;;;;15.88;8.35;;;333.10;1382.40;;;;;;5056537;28;20033;-58
2021/12/01 11:30:57;;;;;;;10.98;5.82;;;333.10;1382.40;;;;;;5056281;28;20021;-58
2021/12/01 11:33:24;;;;;;;11.27;5.82;;;333.10;1356.80;;;;;;5056310;28;20029;-58
2021/12/01 11:36:12;;;;;;;11.88;5.93;;;333.10;1382.40;;;;;;5056275;28;20078;-58
2021/12/01 11:38:39;;;;;;;8.25;4.75;;;333.20;1356.80;;;;;;5055642;28;20041;-59
2021/12/01 11:41:07;;;;;;;9.30;4.68;;;333.20;1356.80;;;;;;5056160;28;20025;-59
2021/12/01 11:43:34;;;;;;;10.60;5.75;;;333.20;1356.80;;;;;;5056259;28;20029;-59
2021/12/01 11:46:00;;;;;;;17.08;5.45;;;333.10;1382.40;;;;;;5055829;28;20021;-58
2021/12/01 11:48:33;;;;;;;16.77;7.05;;;333.20;1382.40;;;;;;5056126;28;20040;-59
2021/12/01 11:51:22;;;;;;;13.23;6.72;;;333.20;1382.40;;;;;;5056190;28;20021;-58
2021/12/01 11:53:52;;;;;;;12.02;6.25;;;333.20;1382.40;;;;;;5055796;28;20104;-58
2021/12/01 11:56:20;;;;;;;12.30;5.55;;;333.20;1382.40;;;;;;5055920;28;20474;-58
2021/12/01 11:58:49;;;;;;;17.05;8.18;;;333.20;1382.40;;;;;;5056108;28;20220;-58
2021/12/01 12:01:21;;;;;;;20.05;9.23;;;333.10;1408.00;;;;;;5055926;28;20100;-59
2021/12/01 12:04:02;;;;;;;12.93;6.78;;;333.10;1408.00;;;;;;5055850;28;20029;-58
2021/12/01 12:06:31;;;;;;;14.57;6.22;;;333.20;1408.00;;;;;;5056084;28;20036;-58
2021/12/01 12:09:03;;;;;;;13.80;6.72;;;333.20;1408.00;;;;;;5055406;28;20045;-58
2021/12/01 12:11:38;;;;;;;17.45;6.55;;;333.20;1408.00;;;;;;5055561;28;20025;-59
2021/12/01 12:14:19;;;;;;;11.52;5.20;;;333.20;1433.60;;;;;;5055903;28;20459;-58